createdAt,value
2018-01-04T00:01:46.381Z,96245.72
2018-01-04T00:04:14.710Z,96235.30
2018-01-04T00:06:43.022Z,96244.19
2018-01-04T00:09:11.392Z,96251.55
2018-01-04T00:11:39.697Z,96231.55
2018-01-04T00:14:08.100Z,96242.83
2018-01-04T00:16:36.439Z,96255.73
2018-01-04T00:19:04.790Z,96253.92
2018-01-04T00:21:33.110Z,96260.23
2018-01-04T00:24:01.444Z,96263.41
2018-01-04T00:26:30.886Z,96260.67
2018-01-04T00:29:00.054Z,96260.27
2018-01-04T00:31:28.392Z,96276.31
2018-01-04T00:33:57.487Z,96267.23
2018-01-04T00:36:25.812Z,96271.74
2018-01-04T00:38:54.144Z,96269.86
2018-01-04T00:41:23.245Z,96254.00
2018-01-04T00:43:58.394Z,96259.36
2018-01-04T00:46:27.559Z,96266.89
2018-01-04T00:48:56.064Z,96267.58
2018-01-04T00:51:24.416Z,96266.72
2018-01-04T00:53:52.755Z,96268.53
2018-01-04T00:56:21.090Z,96268.97
2018-01-04T00:58:50.257Z,96277.15
2018-01-04T01:01:18.594Z,96276.59
2018-01-04T01:03:46.937Z,96271.03
2018-01-04T01:06:16.043Z,96269.22
2018-01-04T01:08:44.351Z,96258.98
2018-01-04T01:11:14.156Z,96256.34
2018-01-04T01:13:42.478Z,96266.43
2018-01-04T01:16:11.767Z,96260.17
2018-01-04T01:18:43.311Z,96254.34
2018-01-04T01:21:12.644Z,96261.67
2018-01-04T01:23:40.964Z,96260.84
2018-01-04T01:26:09.286Z,96263.82
2018-01-04T01:28:37.606Z,96277.16
2018-01-04T01:31:05.975Z,96275.42
2018-01-04T01:33:34.313Z,96283.06
2018-01-04T01:36:02.645Z,96283.59
2018-01-04T01:38:30.970Z,96297.21
2018-01-04T01:40:59.338Z,96281.75
2018-01-04T01:43:27.681Z,96279.36
2018-01-04T01:45:55.998Z,96288.20
2018-01-04T01:48:24.691Z,96271.30
2018-01-04T01:50:53.021Z,96269.16
2018-01-04T01:53:21.327Z,96285.23
2018-01-04T01:55:49.649Z,96272.80
2018-01-04T01:58:17.966Z,96280.87
2018-01-04T02:00:46.287Z,96278.08
2018-01-04T02:03:14.604Z,96275.56
2018-01-04T02:05:42.928Z,96271.30
2018-01-04T02:08:11.259Z,96282.30
2018-01-04T02:10:39.587Z,96279.43
2018-01-04T02:13:07.923Z,96275.97
2018-01-04T02:15:36.252Z,96277.23
2018-01-04T02:18:23.062Z,96276.80
2018-01-04T02:21:09.436Z,96281.62
2018-01-04T02:23:51.518Z,96285.48
2018-01-04T02:26:37.515Z,96294.47
2018-01-04T02:29:23.468Z,96293.70
2018-01-04T02:32:09.391Z,96297.81
2018-01-04T02:34:56.381Z,96299.64
2018-01-04T02:37:42.424Z,96304.50
2018-01-04T02:40:28.214Z,96311.20
2018-01-04T02:43:14.162Z,96298.51
2018-01-04T02:46:00.898Z,96298.21
2018-01-04T02:48:29.866Z,96308.64
2018-01-04T02:50:58.177Z,96296.31
2018-01-04T02:53:27.753Z,96296.91
2018-01-04T02:55:56.098Z,96310.95
2018-01-04T02:58:24.441Z,96314.14
2018-01-04T03:00:52.766Z,96314.53
2018-01-04T03:03:21.089Z,96302.53
2018-01-04T03:05:49.414Z,96290.16
2018-01-04T03:08:17.744Z,96298.97
2018-01-04T03:10:46.080Z,96311.13
2018-01-04T03:13:14.421Z,96292.95
2018-01-04T03:15:42.746Z,96283.16
2018-01-04T03:18:11.078Z,96297.34
2018-01-04T03:20:39.398Z,96301.00
2018-01-04T03:23:13.241Z,96301.87
2018-01-04T03:25:46.950Z,96293.32
2018-01-04T03:28:21.105Z,96313.16
2018-01-04T03:30:54.835Z,96307.74
2018-01-04T03:33:28.661Z,96293.49
2018-01-04T03:36:02.422Z,96289.80
2018-01-04T03:38:36.130Z,96297.30
2018-01-04T03:41:09.897Z,96290.07
2018-01-04T03:43:43.684Z,96289.14
2018-01-04T03:46:17.563Z,96281.34
2018-01-04T03:48:51.424Z,96290.14
2018-01-04T03:51:25.135Z,96278.17
2018-01-04T03:53:58.983Z,96279.61
2018-01-04T03:56:32.846Z,96282.98
2018-01-04T03:59:07.375Z,96292.18
2018-01-04T04:01:41.132Z,96292.59
2018-01-04T04:07:19.745Z,96296.18
2018-01-04T04:09:48.079Z,96294.28
2018-01-04T04:12:16.421Z,96288.02
2018-01-04T04:14:44.765Z,96290.66
2018-01-04T04:17:13.107Z,96293.72
2018-01-04T04:19:41.449Z,96298.46
2018-01-04T04:22:09.775Z,96302.30
2018-01-04T04:24:38.124Z,96304.22
2018-01-04T04:27:06.442Z,96306.16
2018-01-04T04:29:35.530Z,96298.97
2018-01-04T04:32:03.854Z,96304.80
2018-01-04T04:34:32.189Z,96313.50
2018-01-04T04:37:02.066Z,96313.35
2018-01-04T04:39:30.383Z,96328.74
2018-01-04T04:41:59.477Z,96335.59
2018-01-04T04:44:28.577Z,96328.59
2018-01-04T04:46:56.903Z,96324.95
2018-01-04T04:49:25.231Z,96332.28
2018-01-04T04:51:53.565Z,96327.80
2018-01-04T04:54:21.909Z,96338.83
2018-01-04T04:56:50.230Z,96346.16
2018-01-04T04:59:18.582Z,96343.19
2018-01-04T05:01:46.911Z,96349.47
2018-01-04T05:04:15.242Z,96344.55
2018-01-04T05:06:43.563Z,96332.34
2018-01-04T05:09:12.664Z,96345.33
2018-01-04T05:11:41.000Z,96325.80
2018-01-04T05:14:09.344Z,96322.66
2018-01-04T05:16:37.688Z,96319.86
2018-01-04T05:19:06.780Z,96308.94
2018-01-04T05:21:35.878Z,96316.92
2018-01-04T05:24:04.988Z,96313.52
2018-01-04T05:26:34.074Z,96309.36
2018-01-04T05:29:02.403Z,96294.84
2018-01-04T05:31:30.721Z,96301.86
2018-01-04T05:33:59.815Z,96307.72
2018-01-04T05:36:28.164Z,96307.55
2018-01-04T05:38:56.508Z,96299.41
2018-01-04T05:41:24.819Z,96302.28
2018-01-04T05:43:53.156Z,96295.14
2018-01-04T05:46:21.484Z,96300.71
2018-01-04T05:48:49.814Z,96283.10
2018-01-04T05:51:18.151Z,96282.92
2018-01-04T05:53:46.504Z,96288.03
2018-01-04T05:56:14.836Z,96286.52
2018-01-04T05:58:43.154Z,96286.41
2018-01-04T06:01:11.469Z,96288.77
2018-01-04T06:03:39.796Z,96281.82
2018-01-04T06:06:08.128Z,96293.61
2018-01-04T06:08:36.452Z,96298.67
2018-01-04T06:11:04.786Z,96288.18
2018-01-04T06:13:35.119Z,96284.97
2018-01-04T06:16:03.453Z,96280.42
2018-01-04T06:18:31.772Z,96286.69
2018-01-04T06:21:00.112Z,96283.45
2018-01-04T06:23:28.434Z,96284.38
2018-01-04T06:25:56.798Z,96289.10
2018-01-04T06:28:25.141Z,96285.48
2018-01-04T06:30:53.488Z,96287.55
2018-01-04T06:33:21.828Z,96284.71
2018-01-04T06:35:50.922Z,96295.16
2018-01-04T06:38:19.266Z,96295.37
2018-01-04T06:40:47.620Z,96289.82
2018-01-04T06:43:15.936Z,96292.30
2018-01-04T06:45:44.272Z,96282.28
2018-01-04T06:48:12.586Z,96289.72
2018-01-04T06:50:40.915Z,96278.36
2018-01-04T06:53:09.254Z,96279.73
2018-01-04T06:55:37.614Z,96286.30
2018-01-04T06:58:05.949Z,96285.47
2018-01-04T07:00:34.346Z,96287.70
2018-01-04T07:03:02.674Z,96287.67
2018-01-04T07:05:33.149Z,96293.95
2018-01-04T07:08:01.459Z,96301.36
2018-01-04T07:10:29.794Z,96300.50
2018-01-04T07:12:58.122Z,96302.90
2018-01-04T07:15:26.434Z,96306.41
2018-01-04T07:17:54.744Z,96304.21
2018-01-04T07:20:23.070Z,96300.95
2018-01-04T07:22:52.169Z,96299.61
2018-01-04T07:25:20.505Z,96295.86
2018-01-04T07:27:48.845Z,96293.04
2018-01-04T07:30:17.203Z,96295.28
2018-01-04T07:32:47.356Z,96292.39
2018-01-04T07:35:15.690Z,96293.84
2018-01-04T07:37:44.055Z,96291.43
2018-01-04T07:40:12.406Z,96295.45
2018-01-04T07:42:40.770Z,96290.47
2018-01-04T07:45:09.109Z,96285.08
2018-01-04T07:47:37.438Z,96290.56
2018-01-04T07:50:05.780Z,96293.67
2018-01-04T07:52:34.125Z,96281.41
2018-01-04T07:55:02.451Z,96288.77
2018-01-04T07:57:30.778Z,96292.82
2018-01-04T07:59:59.110Z,96288.56
2018-01-04T08:02:27.455Z,96289.44
2018-01-04T08:04:55.807Z,96294.13
2018-01-04T08:07:24.133Z,96289.49
2018-01-04T08:09:53.065Z,96296.90
2018-01-04T08:12:21.409Z,96301.16
2018-01-04T08:14:49.772Z,96301.42
2018-01-04T08:17:18.112Z,96297.02
2018-01-04T08:19:46.487Z,96292.20
2018-01-04T08:22:14.828Z,96297.94
2018-01-04T08:24:43.219Z,96304.56
2018-01-04T08:27:11.539Z,96314.16
2018-01-04T08:29:40.634Z,96314.11
2018-01-04T08:32:08.978Z,96308.75
2018-01-04T08:34:37.322Z,96313.70
2018-01-04T08:37:05.647Z,96309.43
2018-01-04T08:39:34.025Z,96310.69
2018-01-04T08:42:02.363Z,96307.48
2018-01-04T08:44:30.756Z,96326.41
2018-01-04T08:46:59.119Z,96323.05
2018-01-04T08:49:27.441Z,96322.16
2018-01-04T08:51:55.758Z,96316.53
2018-01-04T08:54:24.113Z,96312.20
2018-01-04T08:56:52.443Z,96311.59
2018-01-04T08:59:20.781Z,96317.16
2018-01-04T09:01:49.154Z,96319.58
2018-01-04T09:04:17.516Z,96311.37
2018-01-04T09:06:47.012Z,96304.42
2018-01-04T09:09:15.356Z,96302.61
2018-01-04T09:11:43.689Z,96302.93
2018-01-04T09:14:12.035Z,96296.98
2018-01-04T09:16:41.319Z,96299.77
2018-01-04T09:19:09.667Z,96298.84
2018-01-04T09:21:38.001Z,96292.07
2018-01-04T09:24:06.337Z,96289.24
2018-01-04T09:26:34.668Z,96287.11
2018-01-04T09:29:04.455Z,96283.06
2018-01-04T09:31:32.832Z,96286.55
2018-01-04T09:34:01.171Z,96285.65
2018-01-04T09:36:29.512Z,96277.60
2018-01-04T09:38:57.865Z,96282.71
2018-01-04T09:41:26.207Z,96277.53
2018-01-04T09:43:54.520Z,96272.32
2018-01-04T09:46:22.864Z,96271.91
2018-01-04T09:48:51.213Z,96273.76
2018-01-04T09:51:19.548Z,96269.78
2018-01-04T09:53:47.887Z,96277.91
2018-01-04T09:56:16.212Z,96270.05
2018-01-04T09:58:44.558Z,96282.46
2018-01-04T10:01:13.088Z,96282.95
2018-01-04T10:03:41.443Z,96277.91
2018-01-04T10:06:10.695Z,96276.39
2018-01-04T10:08:39.038Z,96283.55
2018-01-04T10:11:07.381Z,96274.70
2018-01-04T10:13:35.768Z,96268.22
2018-01-04T10:16:04.090Z,96265.81
2018-01-04T10:18:32.427Z,96260.74
2018-01-04T10:21:00.776Z,96263.97
2018-01-04T10:23:29.105Z,96254.79
2018-01-04T10:25:57.449Z,96253.20
2018-01-04T10:28:25.910Z,96241.27
2018-01-04T10:30:54.309Z,96238.61
2018-01-04T10:33:22.626Z,96243.45
2018-01-04T10:35:50.975Z,96234.17
2018-01-04T10:38:19.552Z,96226.11
2018-01-04T10:40:47.930Z,96214.77
2018-01-04T10:43:16.286Z,96210.79
2018-01-04T10:45:44.667Z,96206.97
2018-01-04T10:48:12.990Z,96212.55
2018-01-04T10:50:41.318Z,96212.06
2018-01-04T10:53:09.652Z,96213.94
2018-01-04T10:55:38.006Z,96207.24
2018-01-04T10:58:06.354Z,96199.57
2018-01-04T11:00:34.743Z,96198.88
2018-01-04T11:03:03.088Z,96196.42
2018-01-04T11:05:31.485Z,96195.10
2018-01-04T11:07:59.866Z,96185.63
2018-01-04T11:10:28.238Z,96191.33
2018-01-04T11:12:56.592Z,96190.58
2018-01-04T11:15:24.919Z,96175.25
2018-01-04T11:17:53.238Z,96170.78
2018-01-04T11:20:22.376Z,96162.63
2018-01-04T11:22:50.780Z,96154.53
2018-01-04T11:25:19.107Z,96153.69
2018-01-04T11:27:47.453Z,96156.12
2018-01-04T11:30:15.786Z,96145.95
2018-01-04T11:32:44.147Z,96145.46
2018-01-04T11:35:12.483Z,96145.70
2018-01-04T11:37:40.814Z,96133.28
2018-01-04T11:40:09.150Z,96135.00
2018-01-04T11:42:37.496Z,96125.58
2018-01-04T11:45:05.849Z,96118.05
2018-01-04T11:47:34.181Z,96118.37
2018-01-04T11:50:02.505Z,96121.86
2018-01-04T11:52:32.398Z,96122.98
2018-01-04T11:55:02.329Z,96102.89
2018-01-04T11:57:30.674Z,96096.50
2018-01-04T11:59:59.832Z,96081.37
2018-01-04T12:02:28.181Z,96074.09
2018-01-04T12:04:56.527Z,96073.17
2018-01-04T12:07:24.843Z,96070.85
2018-01-04T12:09:53.193Z,96065.02
2018-01-04T12:12:21.549Z,96062.68
2018-01-04T12:14:49.879Z,96057.83
2018-01-04T12:17:18.193Z,96055.96
2018-01-04T12:19:46.538Z,96043.33
2018-01-04T12:22:15.036Z,96042.94
2018-01-04T12:24:43.366Z,96028.27
2018-01-04T12:27:11.698Z,96034.67
2018-01-04T12:29:40.041Z,96029.18
2018-01-04T12:32:08.374Z,96029.10
2018-01-04T12:34:36.729Z,96025.69
2018-01-04T12:37:05.073Z,96015.84
2018-01-04T12:39:33.414Z,96006.99
2018-01-04T12:42:02.516Z,96007.67
2018-01-04T12:44:30.855Z,96000.11
2018-01-04T12:46:59.204Z,95988.83
2018-01-04T12:49:27.572Z,95965.80
2018-01-04T12:51:55.943Z,95967.61
2018-01-04T12:54:24.920Z,95969.78
2018-01-04T12:56:54.008Z,95960.87
2018-01-04T12:59:22.361Z,95946.04
2018-01-04T13:01:50.707Z,95935.12
2018-01-04T13:04:19.048Z,95934.14
2018-01-04T13:06:48.139Z,95931.67
2018-01-04T13:09:17.402Z,95921.14
2018-01-04T13:11:45.738Z,95916.72
2018-01-04T13:14:15.067Z,95912.91
2018-01-04T13:16:44.089Z,95906.22
2018-01-04T13:19:12.408Z,95905.41
2018-01-04T13:21:40.728Z,95903.15
2018-01-04T13:24:09.052Z,95905.41
2018-01-04T13:26:37.389Z,95904.91
2018-01-04T13:29:05.715Z,95896.22
2018-01-04T13:31:34.082Z,95904.09
2018-01-04T13:34:02.421Z,95897.70
2018-01-04T13:36:31.704Z,95896.55
2018-01-04T13:39:00.048Z,95898.16
2018-01-04T13:41:29.155Z,95891.98
2018-01-04T13:43:57.506Z,95891.54
2018-01-04T13:46:26.664Z,95888.75
2018-01-04T13:48:55.145Z,95882.64
2018-01-04T13:51:23.458Z,95869.56
2018-01-04T13:53:52.539Z,95870.03
2018-01-04T13:56:20.849Z,95863.74
2018-01-04T13:58:49.203Z,95864.45
2018-01-04T14:01:18.310Z,95860.95
2018-01-04T14:03:46.634Z,95844.83
2018-01-04T14:06:14.989Z,95847.81
2018-01-04T14:08:43.304Z,95842.32
2018-01-04T14:11:11.701Z,95836.97
2018-01-04T14:13:40.042Z,95837.23
2018-01-04T14:16:11.204Z,95824.52
2018-01-04T14:18:39.552Z,95828.94
2018-01-04T14:21:07.882Z,95820.94
2018-01-04T14:23:36.260Z,95816.75
2018-01-04T14:26:04.615Z,95817.34
2018-01-04T14:28:32.986Z,95810.62
2018-01-04T14:31:01.314Z,95803.83
2018-01-04T14:33:29.661Z,95797.16
2018-01-04T14:35:57.991Z,95795.00
2018-01-04T14:38:26.316Z,95781.98
2018-01-04T14:40:54.667Z,95778.78
2018-01-04T14:43:23.001Z,95777.81
2018-01-04T14:45:51.356Z,95767.44
2018-01-04T14:48:24.906Z,95773.54
2018-01-04T14:50:53.238Z,95766.10
2018-01-04T14:53:21.601Z,95764.50
2018-01-04T14:55:49.930Z,95751.97
2018-01-04T14:58:18.940Z,95749.09
2018-01-04T15:00:47.274Z,95754.72
2018-01-04T15:03:16.378Z,95744.73
2018-01-04T15:05:44.721Z,95747.94
2018-01-04T15:08:13.084Z,95746.09
2018-01-04T15:10:41.410Z,95747.84
2018-01-04T15:13:10.556Z,95744.89
2018-01-04T15:15:38.906Z,95747.34
2018-01-04T15:18:07.223Z,95739.46
2018-01-04T15:20:35.577Z,95742.81
2018-01-04T15:23:03.909Z,95732.97
2018-01-04T15:25:33.021Z,95733.80
2018-01-04T15:28:01.343Z,95732.47
2018-01-04T15:30:29.691Z,95731.76
2018-01-04T15:32:58.072Z,95721.98
2018-01-04T15:35:26.407Z,95717.71
2018-01-04T15:37:55.540Z,95720.64
2018-01-04T15:40:23.984Z,95729.66
2018-01-04T15:42:52.376Z,95722.58
2018-01-04T15:45:20.736Z,95725.56
2018-01-04T15:47:49.068Z,95720.12
2018-01-04T15:50:17.417Z,95721.66
2018-01-04T15:52:45.747Z,95716.65
2018-01-04T15:55:14.110Z,95721.23
2018-01-04T15:57:42.453Z,95714.16
2018-01-04T16:00:10.836Z,95720.13
2018-01-04T16:02:39.166Z,95701.34
2018-01-04T16:05:07.527Z,95702.42
2018-01-04T16:07:35.868Z,95707.02
2018-01-04T16:10:04.223Z,95705.48
2018-01-04T16:12:33.333Z,95710.78
2018-01-04T16:15:02.431Z,95700.98
2018-01-04T16:17:30.772Z,95703.14
2018-01-04T16:19:59.128Z,95690.02
2018-01-04T16:22:27.448Z,95689.48
2018-01-04T16:24:56.550Z,95685.42
2018-01-04T16:27:24.897Z,95688.72
2018-01-04T16:29:53.245Z,95690.97
2018-01-04T16:32:21.645Z,95685.50
2018-01-04T16:34:50.042Z,95682.91
2018-01-04T16:37:19.172Z,95690.22
2018-01-04T16:39:47.529Z,95689.04
2018-01-04T16:42:15.884Z,95690.75
2018-01-04T16:44:44.216Z,95694.73
2018-01-04T16:47:12.597Z,95708.13
2018-01-04T16:49:43.757Z,95704.64
2018-01-04T16:52:12.113Z,95710.92
2018-01-04T16:54:40.470Z,95703.19
2018-01-04T16:57:08.833Z,95711.52
2018-01-04T16:59:37.185Z,95692.67
2018-01-04T17:02:05.536Z,95677.48
2018-01-04T17:04:33.875Z,95683.46
2018-01-04T17:07:03.003Z,95677.95
2018-01-04T17:09:31.354Z,95681.20
2018-01-04T17:11:59.734Z,95698.31
2018-01-04T17:14:28.119Z,95682.95
2018-01-04T17:16:56.472Z,95687.69
2018-01-04T17:19:24.825Z,95689.84
2018-01-04T17:21:53.179Z,95683.27
2018-01-04T17:24:21.532Z,95687.67
2018-01-04T17:26:49.887Z,95681.52
2018-01-04T17:29:19.031Z,95674.44
2018-01-04T17:31:47.386Z,95671.97
2018-01-04T17:34:15.715Z,95678.72
2018-01-04T17:36:45.128Z,95685.31
2018-01-04T17:39:13.480Z,95681.97
2018-01-04T17:41:41.894Z,95674.47
2018-01-04T17:44:10.245Z,95674.67
2018-01-04T17:46:39.527Z,95674.77
2018-01-04T17:49:07.913Z,95671.12
2018-01-04T17:51:36.254Z,95664.06
2018-01-04T17:54:04.592Z,95662.57
2018-01-04T17:56:32.939Z,95658.88
2018-01-04T17:59:01.358Z,95658.58
2018-01-04T18:01:29.734Z,95654.25
2018-01-04T18:03:58.148Z,95656.70
2018-01-04T18:06:26.567Z,95652.37
2018-01-04T18:08:54.973Z,95646.62
2018-01-04T18:11:23.647Z,95652.33
2018-01-04T18:13:52.293Z,95654.81
2018-01-04T18:16:20.727Z,95650.92
2018-01-04T18:18:49.824Z,95637.69
2018-01-04T18:21:19.374Z,95634.09
2018-01-04T18:23:47.992Z,95649.81
2018-01-04T18:26:16.662Z,95650.88
2018-01-04T18:28:45.627Z,95640.66
2018-01-04T18:31:14.847Z,95641.53
2018-01-04T18:33:43.522Z,95635.98
2018-01-04T18:36:13.014Z,95633.75
2018-01-04T18:38:41.912Z,95649.63
2018-01-04T18:41:11.425Z,95644.77
2018-01-04T18:43:40.480Z,95644.52
2018-01-04T18:46:09.235Z,95646.67
2018-01-04T18:48:38.392Z,95643.56
2018-01-04T18:51:07.858Z,95637.00
2018-01-04T18:53:38.798Z,95630.45
2018-01-04T18:56:08.538Z,95614.14
2018-01-04T18:58:37.754Z,95629.25
2018-01-04T19:01:07.564Z,95624.92
2018-01-04T19:03:37.867Z,95631.15
2018-01-04T19:06:07.748Z,95628.67
2018-01-04T19:08:37.582Z,95629.75
2018-01-04T19:11:07.425Z,95629.61
2018-01-04T19:13:37.984Z,95637.45
2018-01-04T19:16:07.751Z,95632.02
2018-01-04T19:18:37.585Z,95642.59
2018-01-04T19:21:07.641Z,95629.70
2018-01-04T19:23:37.486Z,95639.31
2018-01-04T19:26:07.420Z,95638.61
2018-01-04T19:28:37.293Z,95633.37
2018-01-04T19:31:07.299Z,95655.25
2018-01-04T19:33:37.433Z,95648.11
2018-01-04T19:36:08.550Z,95637.59
2018-01-04T19:38:38.434Z,95643.45
2018-01-04T19:41:08.257Z,95641.80
2018-01-04T19:43:38.409Z,95637.80
2018-01-04T19:46:08.349Z,95653.89
2018-01-04T19:48:38.223Z,95663.48
2018-01-04T19:51:08.243Z,95644.93
2018-01-04T19:53:38.469Z,95659.81
2018-01-04T19:56:08.335Z,95669.22
2018-01-04T19:58:38.228Z,95665.41
2018-01-04T20:01:08.259Z,95666.60
2018-01-04T20:03:39.024Z,95659.81
2018-01-04T20:06:09.796Z,95670.51
2018-01-04T20:08:39.759Z,95679.31
2018-01-04T20:11:10.407Z,95676.84
2018-01-04T20:13:41.161Z,95659.33
2018-01-04T20:16:11.036Z,95665.52
2018-01-04T20:18:40.952Z,95675.36
2018-01-04T20:21:11.798Z,95680.18
2018-01-04T20:23:42.564Z,95686.31
2018-01-04T20:26:12.529Z,95689.67
2018-01-04T20:28:42.493Z,95690.84
2018-01-04T20:31:13.162Z,95710.09
2018-01-04T20:33:43.045Z,95704.42
2018-01-04T20:36:12.989Z,95711.09
2018-01-04T20:38:43.029Z,95716.23
2018-01-04T20:41:12.981Z,95702.21
2018-01-04T20:43:42.967Z,95706.31
2018-01-04T20:46:13.652Z,95718.48
2018-01-04T20:48:47.326Z,95714.55
2018-01-04T20:51:17.167Z,95715.02
2018-01-04T20:53:47.110Z,95719.84
2018-01-04T20:56:17.055Z,95722.15
2018-01-04T20:58:46.989Z,95726.83
2018-01-04T21:01:17.090Z,95719.20
2018-01-04T21:03:47.046Z,95730.95
2018-01-04T21:06:17.019Z,95734.64
2018-01-04T21:08:47.142Z,95732.06
2018-01-04T21:11:17.607Z,95727.29
2018-01-04T21:13:47.626Z,95731.78
2018-01-04T21:16:18.360Z,95737.80
2018-01-04T21:18:48.927Z,95735.59
2018-01-04T21:21:18.863Z,95749.01
2018-01-04T21:23:48.914Z,95740.78
2018-01-04T21:26:18.821Z,95744.30
2018-01-04T21:28:48.957Z,95741.08
2018-01-04T21:31:19.073Z,95747.28
2018-01-04T21:33:49.180Z,95753.90
2018-01-04T21:36:19.143Z,95753.34
2018-01-04T21:38:49.780Z,95776.72
2018-01-04T21:41:20.258Z,95768.38
2018-01-04T21:43:50.190Z,95804.35
2018-01-04T21:46:20.156Z,95810.44
2018-01-04T21:48:50.038Z,95798.50
2018-01-04T21:51:20.637Z,95810.51
2018-01-04T21:53:50.551Z,95805.14
2018-01-04T21:56:20.781Z,95824.89
2018-01-04T21:58:50.664Z,95819.25
2018-01-04T22:01:20.595Z,95817.13
2018-01-04T22:03:51.458Z,95824.19
2018-01-04T22:06:21.349Z,95821.91
2018-01-04T22:08:51.267Z,95814.55
2018-01-04T22:11:21.151Z,95823.64
2018-01-04T22:13:52.162Z,95829.79
2018-01-04T22:16:23.139Z,95823.99
2018-01-04T22:18:53.002Z,95847.75
2018-01-04T22:21:22.846Z,95842.66
2018-01-04T22:23:52.708Z,95841.92
2018-01-04T22:26:22.555Z,95827.55
2018-01-04T22:28:52.464Z,95853.88
2018-01-04T22:31:22.343Z,95848.77
2018-01-04T22:33:52.970Z,95852.53
2018-01-04T22:36:22.834Z,95871.83
2018-01-04T22:38:52.669Z,95856.14
2018-01-04T22:41:22.530Z,95868.20
2018-01-04T22:43:52.179Z,95866.20
2018-01-04T22:46:21.814Z,95872.83
2018-01-04T22:48:51.328Z,95871.35
2018-01-04T22:51:21.074Z,95884.30
2018-01-04T22:53:50.320Z,95889.69
2018-01-04T22:56:19.935Z,95888.41
2018-01-04T22:58:49.056Z,95882.19
2018-01-04T23:01:17.962Z,95881.95
2018-01-04T23:03:46.616Z,95890.91
2018-01-04T23:06:14.993Z,95894.39
2018-01-04T23:08:43.351Z,95887.09
2018-01-04T23:11:11.737Z,95891.24
2018-01-04T23:13:40.063Z,95899.36
2018-01-04T23:16:09.167Z,95906.41
2018-01-04T23:18:37.507Z,95915.95
2018-01-04T23:21:05.842Z,95921.02
2018-01-04T23:23:34.187Z,95921.56
2018-01-04T23:26:03.294Z,95936.03
2018-01-04T23:28:31.618Z,95928.02
2018-01-04T23:30:59.946Z,95925.97
2018-01-04T23:33:28.285Z,95934.41
2018-01-04T23:35:56.641Z,95941.31
2018-01-04T23:38:24.981Z,95944.98
2018-01-04T23:40:53.328Z,95943.40
2018-01-04T23:43:21.669Z,95955.88
2018-01-04T23:45:50.003Z,95946.97
2018-01-04T23:48:18.344Z,95956.29
2018-01-04T23:50:46.691Z,95962.81
2018-01-04T23:53:15.029Z,95952.66
2018-01-04T23:55:44.197Z,95988.36
2018-01-04T23:58:12.543Z,95981.06
